createdAt,value
2024-03-07T00:00:01.756Z,24.90
2024-03-07T00:02:41.534Z,24.80
2024-03-07T00:05:11.840Z,24.80
2024-03-07T00:07:42.610Z,24.90
2024-03-07T00:10:13.520Z,24.70
2024-03-07T00:12:43.552Z,24.70
2024-03-07T00:15:17.549Z,24.80
2024-03-07T00:17:48.003Z,24.80
2024-03-07T00:20:18.082Z,24.90
2024-03-07T00:22:48.380Z,25.10
2024-03-07T00:25:22.420Z,25.10
2024-03-07T00:27:55.724Z,25.20
2024-03-07T00:30:25.805Z,25.30
2024-03-07T00:32:55.933Z,25.40
2024-03-07T00:35:26.414Z,25.40
2024-03-07T00:37:56.577Z,25.40
2024-03-07T00:40:26.603Z,25.40
2024-03-07T00:42:56.477Z,25.50
2024-03-07T00:45:26.407Z,25.60
2024-03-07T00:47:56.344Z,25.70
2024-03-07T00:50:27.179Z,25.80
2024-03-07T00:52:57.576Z,25.90
2024-03-07T00:55:27.788Z,26.00
2024-03-07T00:57:57.594Z,26.10
2024-03-07T01:00:30.980Z,26.20
2024-03-07T01:03:01.385Z,26.30
2024-03-07T01:05:31.292Z,26.40
2024-03-07T01:08:01.368Z,26.40
2024-03-07T01:10:31.250Z,26.40
2024-03-07T01:13:04.547Z,26.50
2024-03-07T01:15:35.590Z,26.60
2024-03-07T01:21:08.965Z,26.80
2024-03-07T01:23:39.260Z,26.90
2024-03-07T01:26:10.227Z,27.00
2024-03-07T01:28:40.221Z,27.20
2024-03-07T01:31:10.660Z,27.20
2024-03-07T01:33:40.774Z,27.40
2024-03-07T01:36:10.565Z,27.50
2024-03-07T01:38:41.216Z,27.60
2024-03-07T01:41:11.481Z,27.70
2024-03-07T01:43:41.258Z,27.80
2024-03-07T01:46:12.917Z,27.90
2024-03-07T01:48:43.195Z,28.00
2024-03-07T01:51:13.542Z,28.00
2024-03-07T02:08:12.418Z,28.20
2024-03-07T02:10:42.510Z,29.00
2024-03-07T02:13:12.317Z,29.10
2024-03-07T02:15:42.346Z,29.20
2024-03-07T02:18:12.682Z,29.40
2024-03-07T02:20:48.620Z,29.50
2024-03-07T02:23:18.869Z,29.60
2024-03-07T02:25:48.786Z,29.80
2024-03-07T02:28:18.769Z,29.90
2024-03-07T02:30:48.924Z,30.00
2024-03-07T02:33:19.107Z,30.30
2024-03-07T02:35:49.036Z,30.40
2024-03-07T02:38:20.575Z,30.40
2024-03-07T02:40:50.840Z,30.40
2024-03-07T02:43:20.762Z,30.70
2024-03-07T02:45:52.768Z,30.80
2024-03-07T02:48:22.918Z,30.80
2024-03-07T02:50:52.972Z,30.80
2024-03-07T02:53:23.178Z,31.00
2024-03-07T02:55:52.970Z,31.10
2024-03-07T02:58:23.211Z,31.20
2024-03-07T03:01:02.756Z,31.20
2024-03-07T03:03:36.158Z,31.40
2024-03-07T03:06:08.377Z,31.50
2024-03-07T03:08:39.633Z,31.70
2024-03-07T03:11:12.017Z,31.80
2024-03-07T03:13:42.426Z,31.80
2024-03-07T03:16:13.122Z,31.90
2024-03-07T03:18:43.165Z,31.90
2024-03-07T03:21:13.212Z,32.20
2024-03-07T03:23:43.270Z,32.20
2024-03-07T03:26:13.322Z,32.40
2024-03-07T03:28:44.116Z,32.70
2024-03-07T03:31:16.632Z,32.80
2024-03-07T03:33:46.950Z,32.90
2024-03-07T03:36:17.622Z,32.90
2024-03-07T03:38:48.424Z,32.90
2024-03-07T03:41:19.690Z,33.00
2024-03-07T03:43:50.208Z,33.30
2024-03-07T03:46:20.086Z,33.50
2024-03-07T03:48:50.156Z,33.60
2024-03-07T03:51:20.136Z,33.80
2024-03-07T03:53:50.565Z,33.70
2024-03-07T03:56:20.604Z,33.70
2024-03-07T03:58:51.148Z,33.70
2024-03-07T04:01:21.426Z,33.70
2024-03-07T04:03:51.297Z,34.00
2024-03-07T04:06:23.007Z,34.20
2024-03-07T04:08:54.797Z,34.20
2024-03-07T04:11:25.219Z,34.30
2024-03-07T04:13:55.187Z,34.40
2024-03-07T04:16:25.696Z,34.60
2024-03-07T04:18:55.591Z,34.60
2024-03-07T04:21:28.411Z,34.80
2024-03-07T04:23:58.605Z,35.00
2024-03-07T04:26:29.026Z,35.00
2024-03-07T04:29:00.689Z,35.30
2024-03-07T04:31:30.644Z,35.40
2024-03-07T04:34:00.488Z,35.40
2024-03-07T04:36:31.605Z,35.60
2024-03-07T04:39:01.691Z,35.50
2024-03-07T04:41:32.748Z,35.70
2024-03-07T04:44:02.853Z,35.80
2024-03-07T04:46:33.471Z,35.80
2024-03-07T04:49:03.473Z,35.90
2024-03-07T04:51:33.380Z,36.10
2024-03-07T04:54:03.792Z,36.10
2024-03-07T04:56:33.762Z,36.10
2024-03-07T04:59:03.869Z,36.20
2024-03-07T05:01:33.917Z,36.20
2024-03-07T05:04:05.588Z,36.30
2024-03-07T05:06:39.042Z,36.60
2024-03-07T05:09:12.647Z,36.70
2024-03-07T05:11:42.788Z,36.60
2024-03-07T05:14:15.230Z,36.70
2024-03-07T05:16:46.189Z,36.80
2024-03-07T05:19:16.721Z,36.80
2024-03-07T05:21:47.354Z,37.00
2024-03-07T05:24:17.681Z,37.00
2024-03-07T05:26:48.562Z,37.10
2024-03-07T05:29:20.418Z,37.10
2024-03-07T05:31:50.798Z,37.00
2024-03-07T05:34:25.914Z,37.20
2024-03-07T05:36:55.890Z,37.30
2024-03-07T05:39:27.069Z,37.40
2024-03-07T05:41:59.809Z,37.30
2024-03-07T05:44:30.110Z,37.30
2024-03-07T05:47:00.406Z,37.30
2024-03-07T05:49:30.656Z,37.30
2024-03-07T05:52:00.578Z,37.40
2024-03-07T05:54:32.242Z,37.40
2024-03-07T05:57:03.169Z,37.60
2024-03-07T05:59:36.512Z,37.70
2024-03-07T06:02:07.732Z,37.80
2024-03-07T06:04:38.208Z,38.00
2024-03-07T06:07:08.481Z,37.70
2024-03-07T06:09:39.828Z,38.00
2024-03-07T06:12:19.449Z,38.00
2024-03-07T06:14:53.346Z,38.20
2024-03-07T06:17:25.768Z,38.30
2024-03-07T06:19:56.050Z,38.50
2024-03-07T06:22:25.823Z,38.40
2024-03-07T06:24:56.451Z,38.60
2024-03-07T06:27:40.070Z,38.60
2024-03-07T06:30:12.051Z,38.70
2024-03-07T06:32:42.713Z,38.60
2024-03-07T06:35:15.716Z,38.70
2024-03-07T06:37:46.344Z,38.60
2024-03-07T06:40:17.364Z,38.60
2024-03-07T06:42:48.755Z,38.70
2024-03-07T06:45:18.957Z,38.80
2024-03-07T06:47:50.365Z,38.90
2024-03-07T06:50:30.314Z,39.10
2024-03-07T06:53:10.046Z,39.30
2024-03-07T06:55:40.811Z,38.90
2024-03-07T06:58:10.803Z,39.20
2024-03-07T07:00:43.119Z,39.40
2024-03-07T07:03:15.403Z,39.60
2024-03-07T07:05:46.157Z,39.50
2024-03-07T07:08:16.442Z,39.30
2024-03-07T07:10:47.411Z,39.20
2024-03-07T07:13:17.828Z,39.20
2024-03-07T07:15:47.924Z,39.20
2024-03-07T07:18:22.072Z,39.30
2024-03-07T07:20:54.813Z,39.50
2024-03-07T07:23:25.948Z,39.50
2024-03-07T07:25:55.895Z,39.70
2024-03-07T07:28:26.989Z,39.80
2024-03-07T07:30:56.907Z,39.50
2024-03-07T07:33:27.161Z,39.30
2024-03-07T07:35:57.212Z,39.40
2024-03-07T07:38:27.315Z,39.50
2024-03-07T07:40:58.433Z,39.50
2024-03-07T07:43:37.678Z,39.60
2024-03-07T07:46:13.244Z,39.70
2024-03-07T07:48:44.718Z,39.80
2024-03-07T07:51:15.998Z,39.60
2024-03-07T07:53:46.923Z,39.70
2024-03-07T07:56:17.741Z,39.90
2024-03-07T07:58:48.641Z,39.90
2024-03-07T08:01:20.170Z,40.10
2024-03-07T08:03:50.265Z,40.10
2024-03-07T08:06:20.397Z,40.20
2024-03-07T08:08:50.670Z,40.00
2024-03-07T08:11:22.546Z,40.10
2024-03-07T08:13:53.505Z,40.10
2024-03-07T08:16:23.598Z,40.10
2024-03-07T08:18:53.449Z,40.00
2024-03-07T08:21:23.734Z,39.90
2024-03-07T08:23:54.396Z,39.60
2024-03-07T08:26:25.129Z,39.70
2024-03-07T08:28:55.178Z,39.90
2024-03-07T08:31:25.391Z,39.70
2024-03-07T08:33:56.627Z,39.50
2024-03-07T08:36:26.646Z,39.50
2024-03-07T08:38:56.569Z,39.40
2024-03-07T08:41:26.708Z,39.30
2024-03-07T08:43:56.803Z,39.40
2024-03-07T08:46:26.805Z,39.40
2024-03-07T08:48:56.618Z,39.30
2024-03-07T08:51:26.722Z,39.30
2024-03-07T08:53:56.569Z,39.40
2024-03-07T08:56:26.671Z,39.50
2024-03-07T08:58:56.580Z,39.50
2024-03-07T09:01:26.658Z,39.50
2024-03-07T09:03:57.264Z,39.40
2024-03-07T09:06:27.306Z,39.30
2024-03-07T09:08:57.200Z,39.20
2024-03-07T09:11:28.441Z,39.10
2024-03-07T09:13:58.717Z,39.30
2024-03-07T09:16:32.609Z,39.30
2024-03-07T09:19:02.841Z,39.30
2024-03-07T09:21:32.761Z,39.20
2024-03-07T09:24:02.856Z,39.10
2024-03-07T09:26:33.304Z,39.20
2024-03-07T09:29:08.469Z,39.00
2024-03-07T09:31:39.428Z,38.90
2024-03-07T09:34:11.234Z,38.90
2024-03-07T09:36:43.438Z,38.80
2024-03-07T09:39:15.098Z,38.90
2024-03-07T09:41:45.775Z,39.00
2024-03-07T09:44:25.548Z,38.90
2024-03-07T09:47:01.166Z,38.90
2024-03-07T09:49:40.399Z,38.70
2024-03-07T09:52:14.361Z,38.60
2024-03-07T09:54:44.508Z,38.50
2024-03-07T09:57:15.668Z,38.50
2024-03-07T09:59:49.436Z,38.40
2024-03-07T10:02:20.939Z,38.40
2024-03-07T10:04:55.052Z,38.30
2024-03-07T10:07:25.252Z,38.30
2024-03-07T10:09:59.177Z,38.20
2024-03-07T10:12:31.173Z,38.10
2024-03-07T10:15:05.470Z,38.10
2024-03-07T10:17:35.785Z,38.10
2024-03-07T10:20:06.009Z,38.00
2024-03-07T10:22:36.244Z,37.90
2024-03-07T10:25:07.122Z,37.80
2024-03-07T10:27:41.063Z,37.80
2024-03-07T10:30:11.509Z,37.70
2024-03-07T10:32:44.237Z,37.70
2024-03-07T10:35:15.913Z,37.60
2024-03-07T10:37:50.884Z,37.60
2024-03-07T10:40:21.097Z,37.50
2024-03-07T10:42:54.798Z,37.30
2024-03-07T10:45:26.556Z,37.30
2024-03-07T10:47:58.849Z,37.10
2024-03-07T10:51:08.851Z,37.10
2024-03-07T10:54:12.439Z,37.10
2024-03-07T10:57:23.746Z,37.00
2024-03-07T11:00:00.361Z,36.80
2024-03-07T11:02:46.779Z,36.80
2024-03-07T11:05:18.568Z,36.70
2024-03-07T11:07:50.776Z,36.60
2024-03-07T11:10:23.305Z,36.60
2024-03-07T11:12:55.811Z,36.50
2024-03-07T11:15:28.832Z,36.40
2024-03-07T11:17:59.314Z,36.10
2024-03-07T11:20:40.201Z,36.10
2024-03-07T11:23:32.201Z,35.90
2024-03-07T11:26:13.139Z,35.80
2024-03-07T11:28:46.686Z,35.60
2024-03-07T11:31:28.115Z,35.60
2024-03-07T11:34:18.623Z,35.70
2024-03-07T11:36:49.659Z,35.70
2024-03-07T11:39:44.741Z,35.50
2024-03-07T11:42:33.700Z,35.30
2024-03-07T11:45:06.732Z,35.10
2024-03-07T11:47:42.801Z,35.10
2024-03-07T11:50:16.309Z,35.10
2024-03-07T11:52:46.927Z,35.00
2024-03-07T11:55:17.856Z,35.00
2024-03-07T11:57:50.190Z,34.70
2024-03-07T12:00:22.438Z,34.90
2024-03-07T12:02:52.910Z,34.80
2024-03-07T12:05:23.002Z,34.70
2024-03-07T12:07:53.452Z,34.70
2024-03-07T12:10:27.368Z,34.40
2024-03-07T12:12:59.564Z,34.30
2024-03-07T12:15:29.787Z,34.30
2024-03-07T12:18:00.517Z,34.30
2024-03-07T12:20:35.905Z,34.20
2024-03-07T12:23:08.178Z,34.20
2024-03-07T12:25:39.421Z,34.20
2024-03-07T12:28:19.718Z,34.20
2024-03-07T12:30:59.087Z,34.20
2024-03-07T12:33:29.573Z,34.10
2024-03-07T12:36:14.516Z,34.20
2024-03-07T12:38:44.949Z,34.00
2024-03-07T12:41:18.845Z,33.90
2024-03-07T12:43:49.804Z,33.80
2024-03-07T12:46:21.065Z,33.80
2024-03-07T12:48:53.292Z,34.00
2024-03-07T12:51:25.370Z,33.90
2024-03-07T12:53:55.718Z,33.80
2024-03-07T12:56:25.950Z,33.80
2024-03-07T12:58:57.290Z,33.80
2024-03-07T13:01:27.645Z,33.50
2024-03-07T13:03:57.526Z,33.50
2024-03-07T13:06:32.557Z,33.70
2024-03-07T13:09:02.802Z,33.70
2024-03-07T13:11:34.899Z,33.40
2024-03-07T13:14:07.868Z,33.30
2024-03-07T13:16:38.141Z,33.40
2024-03-07T13:19:08.183Z,33.20
2024-03-07T13:21:38.597Z,33.10
2024-03-07T13:24:11.067Z,33.00
2024-03-07T13:26:42.931Z,33.10
2024-03-07T13:29:13.855Z,33.30
2024-03-07T13:31:45.781Z,33.40
2024-03-07T13:34:16.055Z,33.20
2024-03-07T13:36:47.125Z,32.80
2024-03-07T13:39:18.913Z,32.50
2024-03-07T13:41:50.904Z,32.40
2024-03-07T13:44:22.182Z,32.30
2024-03-07T13:46:52.458Z,32.30
2024-03-07T13:49:26.547Z,32.50
2024-03-07T13:52:02.631Z,32.50
2024-03-07T13:54:36.527Z,32.30
2024-03-07T13:57:38.053Z,32.60
2024-03-07T14:00:44.040Z,32.70
2024-03-07T14:03:53.659Z,32.70
2024-03-07T14:07:02.883Z,32.50
2024-03-07T14:10:24.193Z,32.10
2024-03-07T14:13:35.405Z,32.20
2024-03-07T14:16:46.156Z,32.00
2024-03-07T14:19:55.475Z,31.80
2024-03-07T14:22:53.693Z,32.00
2024-03-07T14:26:04.601Z,32.10
2024-03-07T14:29:02.192Z,32.20
2024-03-07T14:31:32.731Z,32.10
2024-03-07T14:34:20.462Z,31.90
2024-03-07T14:37:07.120Z,31.70
2024-03-07T14:39:41.039Z,31.70
2024-03-07T14:42:19.460Z,31.50
2024-03-07T14:44:51.171Z,31.60
2024-03-07T14:47:24.112Z,31.60
2024-03-07T14:49:54.855Z,31.60
2024-03-07T14:52:25.302Z,31.20
2024-03-07T14:54:55.687Z,31.00
2024-03-07T14:57:26.093Z,31.30
2024-03-07T14:59:57.360Z,31.50
2024-03-07T15:02:28.908Z,31.30
2024-03-07T15:04:59.769Z,30.80
2024-03-07T15:07:30.456Z,30.50
2024-03-07T15:10:01.204Z,30.30
2024-03-07T15:12:32.126Z,30.30
2024-03-07T15:15:10.802Z,30.20
2024-03-07T15:17:48.313Z,30.20
2024-03-07T15:20:25.057Z,30.60
2024-03-07T15:23:02.148Z,30.80
2024-03-07T15:25:32.857Z,30.90
2024-03-07T15:28:03.490Z,30.80
2024-03-07T15:30:37.560Z,30.80
2024-03-07T15:33:09.185Z,30.70
2024-03-07T15:35:39.841Z,30.70
2024-03-07T15:38:11.825Z,30.50
2024-03-07T15:40:42.693Z,30.40
2024-03-07T15:43:14.607Z,30.10
2024-03-07T15:46:06.551Z,30.00
2024-03-07T15:48:38.433Z,30.10
2024-03-07T15:51:13.595Z,30.10
2024-03-07T15:53:44.720Z,30.30
2024-03-07T15:56:16.364Z,30.50
2024-03-07T15:58:47.993Z,30.50
2024-03-07T16:01:19.093Z,30.50
2024-03-07T16:03:49.170Z,30.50
2024-03-07T16:06:19.804Z,30.10
2024-03-07T16:08:50.120Z,30.30
2024-03-07T16:11:26.820Z,30.20
2024-03-07T16:13:57.875Z,30.20
2024-03-07T16:16:28.338Z,30.00
2024-03-07T16:19:00.076Z,29.90
2024-03-07T16:21:30.542Z,29.90
2024-03-07T16:24:00.635Z,30.00
2024-03-07T16:26:38.289Z,30.00
2024-03-07T16:29:08.776Z,30.10
2024-03-07T16:31:38.792Z,30.10
2024-03-07T16:34:09.091Z,30.10
2024-03-07T16:36:39.540Z,30.10
2024-03-07T16:39:10.251Z,30.10
2024-03-07T16:41:43.172Z,30.10
2024-03-07T16:44:13.320Z,30.10
2024-03-07T16:46:43.531Z,30.20
2024-03-07T16:49:17.093Z,30.10
2024-03-07T16:51:49.404Z,30.00
2024-03-07T16:54:19.841Z,29.90
2024-03-07T16:56:49.884Z,30.00
2024-03-07T16:59:21.906Z,30.00
2024-03-07T17:01:53.869Z,29.90
2024-03-07T17:04:24.366Z,29.90
2024-03-07T17:06:54.924Z,29.90
2024-03-07T17:09:25.333Z,29.80
2024-03-07T17:11:55.388Z,29.90
2024-03-07T17:14:26.229Z,29.70
2024-03-07T17:16:57.147Z,29.50
2024-03-07T17:19:28.000Z,29.40
2024-03-07T17:21:57.947Z,29.40
2024-03-07T17:24:28.403Z,29.40
2024-03-07T17:26:58.443Z,29.40
2024-03-07T17:29:29.503Z,29.40
2024-03-07T17:31:59.687Z,29.40
2024-03-07T17:34:32.608Z,29.30
2024-03-07T17:37:03.393Z,29.20
2024-03-07T17:39:33.466Z,29.20
2024-03-07T17:42:10.062Z,29.20
2024-03-07T17:44:41.530Z,29.20
2024-03-07T17:47:13.139Z,29.10
2024-03-07T17:49:43.820Z,29.00
2024-03-07T17:52:16.191Z,29.00
2024-03-07T17:54:49.548Z,29.10
2024-03-07T17:57:20.374Z,29.00
2024-03-07T17:59:51.091Z,29.00
2024-03-07T18:02:22.438Z,29.00
2024-03-07T18:04:52.654Z,28.90
2024-03-07T18:07:25.800Z,28.80
2024-03-07T18:09:56.849Z,28.70
2024-03-07T18:12:27.779Z,28.80
2024-03-07T18:15:08.960Z,28.70
2024-03-07T18:17:46.434Z,28.80
2024-03-07T18:20:20.211Z,28.60
2024-03-07T18:22:53.441Z,28.60
2024-03-07T18:25:28.086Z,28.60
2024-03-07T18:27:59.106Z,28.60
2024-03-07T18:30:29.282Z,28.60
2024-03-07T18:32:59.734Z,28.50
2024-03-07T18:35:30.458Z,28.50
2024-03-07T18:38:00.904Z,28.60
2024-03-07T18:40:31.381Z,28.50
2024-03-07T18:43:01.649Z,28.50
2024-03-07T18:45:33.139Z,28.40
2024-03-07T18:48:09.882Z,28.40
2024-03-07T18:50:48.452Z,28.40
2024-03-07T18:53:23.367Z,28.30
2024-03-07T18:55:54.135Z,28.30
2024-03-07T18:58:25.034Z,28.20
2024-03-07T19:00:55.566Z,28.20
2024-03-07T19:03:26.363Z,28.20
2024-03-07T19:05:58.998Z,28.20
2024-03-07T19:08:32.424Z,28.10
2024-03-07T19:11:02.777Z,27.90
2024-03-07T19:13:37.807Z,27.70
2024-03-07T19:16:11.403Z,27.70
2024-03-07T19:18:41.657Z,27.90
2024-03-07T19:21:13.157Z,28.00
2024-03-07T19:23:47.824Z,28.10
2024-03-07T19:26:21.900Z,28.10
2024-03-07T19:28:52.120Z,28.00
2024-03-07T19:31:22.009Z,27.90
2024-03-07T19:33:54.083Z,28.10
2024-03-07T19:36:24.369Z,28.10
2024-03-07T19:38:54.756Z,28.00
2024-03-07T19:41:25.612Z,28.00
2024-03-07T19:43:55.895Z,28.00
2024-03-07T19:46:28.225Z,28.00
2024-03-07T19:48:58.846Z,28.00
2024-03-07T19:51:29.279Z,27.90
2024-03-07T19:54:00.656Z,27.80
2024-03-07T19:56:30.768Z,27.60
2024-03-07T19:59:00.671Z,27.70
2024-03-07T20:01:30.847Z,27.60
2024-03-07T20:04:02.818Z,27.70
2024-03-07T20:06:37.593Z,27.80
2024-03-07T20:09:07.657Z,27.80
2024-03-07T20:11:40.140Z,27.70
2024-03-07T20:14:10.412Z,27.70
2024-03-07T20:16:41.386Z,27.60
2024-03-07T20:19:11.823Z,27.60
2024-03-07T20:21:43.706Z,27.50
2024-03-07T20:24:13.996Z,27.50
2024-03-07T20:26:43.983Z,27.50
2024-03-07T20:29:15.244Z,27.40
2024-03-07T20:31:45.394Z,27.40
2024-03-07T20:34:15.288Z,27.40
2024-03-07T20:36:45.397Z,27.40
2024-03-07T20:39:24.321Z,27.40
2024-03-07T20:41:55.276Z,27.30
2024-03-07T20:44:27.627Z,27.30
2024-03-07T20:46:59.269Z,27.20
2024-03-07T20:49:29.427Z,27.20
2024-03-07T20:52:00.399Z,27.20
2024-03-07T20:54:30.982Z,27.20
2024-03-07T20:57:00.964Z,27.20
2024-03-07T20:59:33.316Z,27.20
2024-03-07T21:02:05.557Z,27.10
2024-03-07T21:04:35.757Z,27.10
2024-03-07T21:07:05.819Z,27.20
2024-03-07T21:09:35.836Z,27.20
2024-03-07T21:12:05.999Z,27.10
2024-03-07T21:14:36.481Z,27.10
2024-03-07T21:17:06.640Z,27.10
2024-03-07T21:19:39.041Z,27.10
2024-03-07T21:22:10.582Z,27.10
2024-03-07T21:24:41.575Z,26.90
2024-03-07T21:27:15.184Z,26.80
2024-03-07T21:29:45.264Z,26.80
2024-03-07T21:32:16.134Z,26.90
2024-03-07T21:34:46.375Z,26.80
2024-03-07T21:37:16.290Z,26.80
2024-03-07T21:39:46.495Z,26.80
2024-03-07T21:42:16.273Z,26.80
2024-03-07T21:44:47.173Z,26.70
2024-03-07T21:47:17.212Z,26.80
2024-03-07T21:49:47.631Z,26.70
2024-03-07T21:52:19.748Z,26.80
2024-03-07T21:54:51.640Z,26.60
2024-03-07T21:57:22.036Z,26.60
2024-03-07T21:59:52.317Z,26.60
2024-03-07T22:02:24.716Z,26.60
2024-03-07T22:04:55.006Z,26.60
2024-03-07T22:07:25.767Z,26.60
2024-03-07T22:09:56.487Z,26.60
2024-03-07T22:12:26.559Z,26.70
2024-03-07T22:14:57.934Z,26.60
2024-03-07T22:17:28.249Z,26.70
2024-03-07T22:19:58.130Z,26.60
2024-03-07T22:22:30.202Z,26.40
2024-03-07T22:25:02.516Z,26.30
2024-03-07T22:27:33.025Z,26.30
2024-03-07T22:30:03.101Z,26.30
2024-03-07T22:32:34.322Z,26.30
2024-03-07T22:35:17.556Z,26.20
2024-03-07T22:37:53.917Z,26.20
2024-03-07T22:40:29.876Z,26.20
2024-03-07T22:43:00.145Z,26.20
2024-03-07T22:45:32.209Z,26.10
2024-03-07T22:48:02.703Z,26.10
2024-03-07T22:50:33.559Z,26.10
2024-03-07T22:53:05.015Z,26.10
2024-03-07T22:55:35.332Z,26.10
2024-03-07T22:58:05.235Z,26.10
2024-03-07T23:00:36.910Z,26.10
2024-03-07T23:03:08.505Z,26.00
2024-03-07T23:05:40.487Z,26.10
2024-03-07T23:08:12.106Z,26.00
2024-03-07T23:10:42.415Z,26.10
2024-03-07T23:13:13.519Z,26.00
2024-03-07T23:15:44.503Z,26.10
2024-03-07T23:18:14.733Z,25.90
2024-03-07T23:20:45.846Z,26.00
2024-03-07T23:23:18.345Z,25.90
2024-03-07T23:25:48.455Z,25.90
2024-03-07T23:28:21.646Z,25.90
2024-03-07T23:30:53.548Z,25.90
2024-03-07T23:33:23.831Z,25.90
2024-03-07T23:35:53.842Z,25.80
2024-03-07T23:38:24.472Z,25.80
2024-03-07T23:40:54.425Z,25.80
2024-03-07T23:43:25.439Z,25.70
2024-03-07T23:45:55.717Z,25.90
2024-03-07T23:48:27.920Z,25.90
2024-03-07T23:50:58.347Z,26.00
2024-03-07T23:53:28.514Z,26.00
2024-03-07T23:56:01.289Z,25.80
2024-03-07T23:58:31.408Z,25.80
